Downstream station:
SHEF ID: ENWK1 CROOKED C NR ENGLEWOOD, KS
STATION TYPE:
Regulating: Stage = 6.50, Flow = 243
PRECIP STAGE RIV-FLOW BAT-LOAD
in ft cfs volt
Ccp-Rev Ccp-Rev Ccp-Rev Ccp-Rev
(US/Central)
01/07 00:00 0.00 2.79 9 12.77
01/07 01:00 0.00 2.80 9 12.77
01/07 02:00 0.00 2.83 10 12.71
01/07 03:00 0.00 2.85 10 12.71
01/07 04:00 0.00 2.86 10 12.71
01/07 05:00 0.00 2.88 11 12.65
01/07 06:00 0.00 2.89 11 12.60
01/07 07:00 0.00 2.91 11 12.54
01/07 08:00 0.00 2.90 11 12.48
01/07 09:00 0.00 2.89 11 12.60
01/07 10:00 0.00 2.89 11 14.94
01/07 11:00 0.00 2.88 11 14.94
01/07 12:00 0.00 2.63 6 14.82
01/07 13:00 0.00 2.46 4 14.76
01/07 14:00 0.00 2.40 3 14.59
01/07 15:00 0.00 2.38 3 14.53
01/07 16:00 0.00 2.39 3 14.53
01/07 17:00 0.00 2.39 3 14.12
01/07 18:00 0.00 2.39 3 13.88
01/07 19:00 0.00 2.38 3 13.30
01/07 20:00 0.00 2.39 3 13.00
01/07 21:00 0.00 2.48 4 12.95
01/07 22:00 0.00 2.67 7 12.89
01/07 23:00 ---- ---- ---- ----